Time;durP1;ratioP1;P1;durP2;ratioP2;P2;SDS_P1;SDS_P2;PMS_P1;PMS_P2;Temp;Humidity;BMP_temperature;BMP_pressure;BME280_temperature;BME280_humidity;BME280_pressure;Samples;Min_cycle;Max_cycle;Signal;HPM_P1;HPM_P2
2021/11/23 00:00:46;;;;;;;14.15;6.07;;;4.70;95.60;;;;;;5065020;28;20118;-54
2021/11/23 00:03:13;;;;;;;12.02;5.40;;;4.70;95.50;;;;;;5063923;28;20132;-56
2021/11/23 00:05:42;;;;;;;20.73;6.03;;;4.80;95.40;;;;;;5069815;28;20392;-55
2021/11/23 00:08:10;;;;;;;23.40;6.97;;;4.80;95.40;;;;;;5065346;28;20181;-56
2021/11/23 00:10:37;;;;;;;20.35;6.82;;;4.80;95.40;;;;;;5065219;28;20070;-55
2021/11/23 00:13:04;;;;;;;20.95;7.53;;;4.80;95.60;;;;;;5065111;28;20399;-58
2021/11/23 00:15:34;;;;;;;30.30;8.68;;;4.90;95.80;;;;;;5066252;28;20040;-55
2021/11/23 00:18:03;;;;;;;20.25;8.38;;;4.90;95.90;;;;;;5060074;28;20554;-54
2021/11/23 00:20:29;;;;;;;22.48;8.85;;;5.00;95.80;;;;;;5066020;28;20179;-56
2021/11/23 00:22:56;;;;;;;22.75;9.73;;;5.00;95.90;;;;;;5063658;28;20071;-57
2021/11/23 00:25:35;;;;;;;17.60;9.30;;;5.00;96.00;;;;;;5065961;28;20061;-53
2021/11/23 00:28:01;;;;;;;29.17;9.05;;;5.00;96.10;;;;;;5059300;28;20083;-56
2021/11/23 00:30:30;;;;;;;35.83;10.43;;;5.10;96.10;;;;;;5068899;28;20139;-56
2021/11/23 00:32:57;;;;;;;36.78;14.30;;;5.00;96.20;;;;;;5071307;28;20153;-55
2021/11/23 00:35:24;;;;;;;31.77;13.77;;;5.00;96.90;;;;;;5066832;28;20114;-56
2021/11/23 00:37:51;;;;;;;28.25;13.18;;;5.10;96.80;;;;;;5069377;28;20122;-54
2021/11/23 00:40:19;;;;;;;38.17;14.93;;;5.20;96.80;;;;;;5066486;28;20036;-56
2021/11/23 00:42:46;;;;;;;36.53;14.00;;;5.20;96.70;;;;;;5068678;28;20094;-57
2021/11/23 00:45:13;;;;;;;29.90;13.77;;;5.20;96.70;;;;;;5066312;28;20571;-58
2021/11/23 00:47:40;;;;;;;37.28;12.57;;;5.70;96.80;;;;;;5066654;28;20098;-55
2021/11/23 00:50:07;;;;;;;32.13;14.18;;;5.20;96.70;;;;;;5067331;28;20053;-56
2021/11/23 00:52:34;;;;;;;37.75;15.10;;;5.30;96.70;;;;;;5072631;28;20105;-56
2021/11/23 00:55:02;;;;;;;32.65;13.82;;;5.30;96.70;;;;;;5066864;28;20060;-55
2021/11/23 00:57:29;;;;;;;34.78;14.15;;;5.30;96.70;;;;;;5065570;28;20084;-55
2021/11/23 00:59:56;;;;;;;30.52;13.65;;;5.30;96.70;;;;;;5065614;28;20045;-55
2021/11/23 01:02:23;;;;;;;39.22;14.63;;;5.30;96.70;;;;;;5065744;28;20578;-56
2021/11/23 01:04:49;;;;;;;54.90;14.93;;;5.30;96.70;;;;;;5066609;28;20136;-54
2021/11/23 01:07:17;;;;;;;40.20;13.82;;;5.20;96.70;;;;;;5068614;28;20224;-54
2021/11/23 01:09:44;;;;;;;37.35;14.07;;;5.20;96.80;;;;;;5067391;28;20056;-55
2021/11/23 01:12:11;;;;;;;32.45;13.93;;;5.20;96.80;;;;;;5067744;28;20040;-58
2021/11/23 01:14:38;;;;;;;46.42;16.10;;;5.20;96.90;;;;;;5063850;28;20105;-58
2021/11/23 01:17:04;;;;;;;33.30;14.48;;;5.20;97.10;;;;;;5072404;28;20087;-56
2021/11/23 01:19:31;;;;;;;52.10;13.93;;;5.10;97.10;;;;;;5070057;28;20040;-54
2021/11/23 01:21:58;;;;;;;44.70;14.40;;;5.10;97.00;;;;;;5073091;28;20151;-53
2021/11/23 01:24:25;;;;;;;40.63;14.57;;;5.10;97.20;;;;;;5071431;28;20057;-56
2021/11/23 01:26:52;;;;;;;34.97;14.15;;;5.10;97.10;;;;;;5070662;28;20068;-57
2021/11/23 01:29:18;;;;;;;41.35;13.27;;;5.20;97.10;;;;;;5070197;28;20143;-57
2021/11/23 01:31:45;;;;;;;31.52;13.38;;;5.20;97.10;;;;;;5068728;28;20123;-53
2021/11/23 01:34:12;;;;;;;36.63;15.25;;;5.20;97.10;;;;;;5068814;28;20044;-52
2021/11/23 01:36:39;;;;;;;48.55;13.82;;;5.20;97.00;;;;;;5068916;28;20110;-55
2021/11/23 01:39:05;;;;;;;30.92;13.30;;;5.20;97.00;;;;;;5069830;28;20576;-55
2021/11/23 01:41:32;;;;;;;37.83;14.88;;;5.20;97.00;;;;;;5066212;28;20068;-56
2021/11/23 01:43:59;;;;;;;40.28;14.40;;;5.30;97.00;;;;;;5069581;28;20140;-53
2021/11/23 01:46:26;;;;;;;37.90;15.10;;;5.30;97.00;;;;;;4721178;27;10000638;-55
2021/11/23 01:48:53;;;;;;;40.05;15.30;;;5.30;96.90;;;;;;5069546;28;20084;-55
2021/11/23 01:51:19;;;;;;;30.63;14.52;;;5.30;96.80;;;;;;5069698;28;20056;-56
2021/11/23 01:53:46;;;;;;;31.08;14.10;;;5.30;96.80;;;;;;5069554;28;20068;-58
2021/11/23 01:56:13;;;;;;;71.13;15.48;;;5.30;96.80;;;;;;5069008;28;20459;-54
2021/11/23 01:58:40;;;;;;;34.88;13.98;;;5.30;96.80;;;;;;5070215;28;20095;-52
2021/11/23 02:01:07;;;;;;;26.95;13.15;;;5.30;96.80;;;;;;5068696;28;20041;-53
2021/11/23 02:03:35;;;;;;;32.50;14.80;;;5.30;97.00;;;;;;5069743;28;20048;-55
2021/11/23 02:06:02;;;;;;;31.35;14.23;;;5.20;97.00;;;;;;5069316;28;20044;-55
2021/11/23 02:08:29;;;;;;;32.95;15.48;;;5.30;97.00;;;;;;5069786;28;20056;-53
2021/11/23 02:10:56;;;;;;;36.95;15.38;;;5.30;97.00;;;;;;5067937;28;20044;-55
2021/11/23 02:13:23;;;;;;;39.17;16.50;;;5.50;97.20;;;;;;5068042;28;20049;-55
2021/11/23 02:15:50;;;;;;;31.85;13.98;;;5.20;97.40;;;;;;5068617;28;20068;-52
2021/11/23 02:18:18;;;;;;;33.70;15.48;;;5.20;97.30;;;;;;5069094;28;20140;-53
2021/11/23 02:20:45;;;;;;;34.40;15.85;;;5.30;97.20;;;;;;5071435;28;20075;-54
2021/11/23 02:23:13;;;;;;;45.15;15.80;;;5.30;97.00;;;;;;5074936;28;20568;-55
2021/11/23 02:25:39;;;;;;;31.35;15.82;;;5.30;96.90;;;;;;5061981;28;20091;-55
2021/11/23 02:28:08;;;;;;;31.48;15.43;;;5.30;97.00;;;;;;5069289;28;20076;-56
2021/11/23 02:30:58;;;;;;;50.35;17.25;;;5.30;96.90;;;;;;5067445;28;20340;-53
2021/11/23 02:33:26;;;;;;;48.83;17.35;;;5.30;96.90;;;;;;5068577;28;20049;-56
2021/11/23 02:35:55;;;;;;;44.38;17.40;;;5.30;97.00;;;;;;5070978;28;20072;-57
2021/11/23 02:38:23;;;;;;;34.70;17.15;;;5.30;97.10;;;;;;5070761;28;20052;-55
2021/11/23 02:40:49;;;;;;;32.85;16.60;;;5.30;97.10;;;;;;5068977;28;20080;-53
2021/11/23 02:43:16;;;;;;;42.80;17.33;;;5.20;97.10;;;;;;5068347;28;20171;-54
2021/11/23 02:45:43;;;;;;;40.97;16.08;;;5.20;97.20;;;;;;5067484;28;20114;-55
2021/11/23 02:48:11;;;;;;;42.28;18.17;;;5.10;97.50;;;;;;5067942;28;20474;-55
2021/11/23 02:50:39;;;;;;;40.50;17.40;;;5.10;97.40;;;;;;5070419;28;20079;-55
2021/11/23 02:53:06;;;;;;;32.30;15.45;;;5.10;97.20;;;;;;5070429;28;20061;-56
2021/11/23 02:55:35;;;;;;;36.70;16.55;;;5.20;97.20;;;;;;5067636;28;20067;-56
2021/11/23 02:58:04;;;;;;;39.67;16.20;;;5.10;97.10;;;;;;5071505;28;20057;-56
2021/11/23 03:00:31;;;;;;;34.38;16.73;;;5.20;97.00;;;;;;5051158;28;20048;-57
2021/11/23 03:02:59;;;;;;;34.95;13.95;;;5.10;97.10;;;;;;5070687;28;20123;-55
2021/11/23 03:05:26;;;;;;;37.15;15.07;;;5.10;97.20;;;;;;5068082;28;20374;-55
2021/11/23 03:07:53;;;;;;;37.60;16.35;;;5.00;97.30;;;;;;5067773;28;20048;-53
2021/11/23 03:10:24;;;;;;;33.97;15.23;;;5.10;97.30;;;;;;5066588;28;20048;-56
2021/11/23 03:12:51;;;;;;;30.77;14.32;;;5.00;97.30;;;;;;5061050;28;20086;-52
2021/11/23 03:15:18;;;;;;;37.97;15.13;;;4.90;97.20;;;;;;5068510;28;20040;-56
2021/11/23 03:17:45;;;;;;;47.63;16.33;;;4.90;97.30;;;;;;5072753;28;20146;-54
2021/11/23 03:20:14;;;;;;;56.53;16.15;;;5.00;97.20;;;;;;5068812;28;20045;-53
2021/11/23 03:22:41;;;;;;;47.08;18.40;;;5.00;97.60;;;;;;5068218;28;20272;-55
2021/11/23 03:25:08;;;;;;;43.92;15.65;;;4.90;97.30;;;;;;5068704;28;20052;-54
2021/11/23 03:27:35;;;;;;;56.05;15.25;;;5.00;97.30;;;;;;5067620;28;20075;-55
2021/11/23 03:30:04;;;;;;;30.25;15.98;;;4.90;97.30;;;;;;5067371;28;20139;-56
2021/11/23 03:32:30;;;;;;;35.63;13.95;;;4.90;97.30;;;;;;5069600;28;20048;-58
2021/11/23 03:34:57;;;;;;;51.92;15.98;;;4.80;97.30;;;;;;5070734;28;20131;-53
2021/11/23 03:37:25;;;;;;;51.10;15.80;;;4.70;97.60;;;;;;5069089;28;20127;-52
2021/11/23 03:39:52;;;;;;;86.88;14.65;;;4.70;97.70;;;;;;5066690;28;20483;-57
2021/11/23 03:42:19;;;;;;;71.45;16.73;;;4.70;97.60;;;;;;5065803;28;20520;-54
2021/11/23 03:44:46;;;;;;;78.10;15.70;;;4.70;97.60;;;;;;5067050;28;20408;-57
2021/11/23 03:47:14;;;;;;;120.15;16.15;;;4.70;97.60;;;;;;5067528;28;20099;-54
2021/11/23 03:49:42;;;;;;;106.97;15.90;;;4.70;97.50;;;;;;5067090;28;20084;-55
2021/11/23 03:52:09;;;;;;;64.60;13.38;;;4.70;97.50;;;;;;5067288;28;20062;-54
2021/11/23 03:54:36;;;;;;;47.10;14.52;;;4.70;97.50;;;;;;5067051;28;20094;-56
2021/11/23 03:57:03;;;;;;;77.20;15.43;;;4.70;97.50;;;;;;5069064;28;20040;-53
2021/11/23 03:59:30;;;;;;;71.38;15.30;;;4.70;97.50;;;;;;5065830;28;20092;-56
2021/11/23 04:01:57;;;;;;;48.10;14.85;;;4.80;97.40;;;;;;5049219;28;20082;-55
2021/11/23 04:04:24;;;;;;;101.53;15.13;;;4.70;97.40;;;;;;5067423;28;20063;-55
2021/11/23 04:06:53;;;;;;;99.05;16.15;;;4.60;97.70;;;;;;5069716;28;20036;-56
2021/11/23 04:09:20;;;;;;;77.38;13.73;;;4.70;98.00;;;;;;5067238;28;20086;-54
2021/11/23 04:11:46;;;;;;;84.53;15.30;;;4.70;97.60;;;;;;5066966;28;20051;-54
2021/11/23 04:14:15;;;;;;;45.13;13.10;;;4.80;97.60;;;;;;5067022;28;20140;-53
2021/11/23 04:16:42;;;;;;;58.22;15.15;;;4.70;97.50;;;;;;5067000;28;20087;-55
2021/11/23 04:19:09;;;;;;;56.95;15.50;;;4.70;97.60;;;;;;5067158;28;20049;-55
2021/11/23 04:21:35;;;;;;;50.53;15.65;;;4.70;97.60;;;;;;5071404;28;20106;-55
2021/11/23 04:24:03;;;;;;;46.67;16.15;;;4.70;97.60;;;;;;5070068;28;20275;-61
2021/11/23 04:26:29;;;;;;;59.90;15.32;;;4.80;97.60;;;;;;5067135;28;20044;-52
2021/11/23 04:28:56;;;;;;;40.17;14.35;;;4.80;97.30;;;;;;5067264;28;20119;-53
2021/11/23 04:31:23;;;;;;;35.97;16.15;;;4.80;97.40;;;;;;5066370;28;20561;-53
2021/11/23 04:33:50;;;;;;;32.15;13.45;;;4.80;97.40;;;;;;5066787;28;20087;-54
2021/11/23 04:36:17;;;;;;;39.38;13.48;;;4.80;97.40;;;;;;5065420;28;20140;-55
2021/11/23 04:38:43;;;;;;;38.13;13.57;;;4.80;97.20;;;;;;5066734;28;20127;-55
2021/11/23 04:41:10;;;;;;;39.92;13.07;;;4.80;97.20;;;;;;5066892;28;20110;-56
2021/11/23 04:43:37;;;;;;;39.55;13.88;;;4.80;97.20;;;;;;5067136;28;20102;-55
2021/11/23 04:46:04;;;;;;;51.22;14.02;;;4.70;97.30;;;;;;5067097;28;20068;-59
2021/11/23 04:48:30;;;;;;;47.95;15.27;;;4.60;97.40;;;;;;5068172;28;20044;-56
2021/11/23 04:50:57;;;;;;;98.65;15.57;;;4.60;97.30;;;;;;5068509;28;20048;-53
2021/11/23 04:53:24;;;;;;;56.70;13.55;;;4.70;97.30;;;;;;5070283;28;20044;-54
2021/11/23 04:55:51;;;;;;;64.32;14.27;;;4.60;97.20;;;;;;5070265;28;20048;-55
2021/11/23 04:58:18;;;;;;;81.68;14.80;;;4.60;97.30;;;;;;5069860;28;20331;-55
2021/11/23 05:00:44;;;;;;;184.88;17.13;;;4.50;97.40;;;;;;5070850;28;20098;-55
2021/11/23 05:03:11;;;;;;;53.65;12.55;;;4.30;97.40;;;;;;5069951;28;20107;-56
2021/11/23 05:05:38;;;;;;;46.45;13.90;;;4.30;97.70;;;;;;5074184;28;20101;-56
2021/11/23 05:08:05;;;;;;;64.47;11.80;;;4.30;97.50;;;;;;5072270;28;20120;-55
2021/11/23 05:10:32;;;;;;;70.45;11.80;;;4.30;97.60;;;;;;5067166;28;20044;-56
2021/11/23 05:12:59;;;;;;;152.38;15.70;;;4.40;97.40;;;;;;5069994;28;20449;-56
2021/11/23 05:15:25;;;;;;;98.63;14.35;;;4.40;97.40;;;;;;5069849;28;20131;-54
2021/11/23 05:17:52;;;;;;;58.75;13.50;;;4.30;97.30;;;;;;5072309;28;20124;-57
2021/11/23 05:20:19;;;;;;;41.90;12.60;;;4.30;97.40;;;;;;5073997;28;20090;-55
2021/11/23 05:22:46;;;;;;;128.52;14.95;;;5.00;97.70;;;;;;5069864;28;20526;-55
2021/11/23 05:25:13;;;;;;;139.20;14.55;;;4.30;97.40;;;;;;5074938;28;20135;-55
2021/11/23 05:27:41;;;;;;;231.70;16.70;;;5.00;97.50;;;;;;5069435;28;20078;-55
2021/11/23 05:30:09;;;;;;;83.00;12.35;;;4.40;97.20;;;;;;5070162;28;20044;-53
2021/11/23 05:32:36;;;;;;;99.32;12.40;;;4.30;97.40;;;;;;5069826;28;20138;-56
2021/11/23 05:35:03;;;;;;;94.90;11.60;;;4.20;97.20;;;;;;5068329;28;20136;-56
2021/11/23 05:37:30;;;;;;;110.85;12.10;;;4.30;97.30;;;;;;5069753;28;20484;-54
2021/11/23 05:39:57;;;;;;;144.88;14.02;;;4.20;97.20;;;;;;5069859;28;20076;-53
2021/11/23 05:42:24;;;;;;;150.13;12.73;;;4.20;97.30;;;;;;5069392;28;20889;-55
2021/11/23 05:44:50;;;;;;;114.90;13.52;;;4.20;97.10;;;;;;5069381;28;20078;-55
2021/11/23 05:47:17;;;;;;;123.40;12.40;;;4.20;97.10;;;;;;5071555;28;20486;-53
2021/11/23 05:49:44;;;;;;;134.25;12.98;;;4.20;97.10;;;;;;5069479;28;20102;-56
2021/11/23 05:52:11;;;;;;;64.55;10.68;;;4.10;97.10;;;;;;5071443;28;20118;-54
2021/11/23 05:54:38;;;;;;;59.95;11.57;;;4.20;97.20;;;;;;5068716;28;20044;-55
2021/11/23 05:57:05;;;;;;;60.85;10.05;;;4.20;97.10;;;;;;5069837;28;20045;-55
2021/11/23 05:59:32;;;;;;;57.40;10.75;;;4.20;97.20;;;;;;5068079;28;20131;-54
2021/11/23 06:01:59;;;;;;;76.80;9.77;;;4.20;97.20;;;;;;5068116;28;20074;-56
2021/11/23 06:04:26;;;;;;;37.92;10.02;;;4.10;96.90;;;;;;5068054;28;20063;-59
2021/11/23 06:06:52;;;;;;;70.78;10.32;;;4.10;97.00;;;;;;5069478;28;20076;-56
2021/11/23 06:09:19;;;;;;;44.33;10.85;;;4.10;96.90;;;;;;5067501;28;20126;-55
2021/11/23 06:11:46;;;;;;;66.07;9.93;;;4.00;97.10;;;;;;5069848;28;20074;-52
2021/11/23 06:14:13;;;;;;;41.67;10.57;;;4.00;96.90;;;;;;5069056;28;20056;-56
2021/11/23 06:16:44;;;;;;;40.17;9.95;;;4.10;97.30;;;;;;5070742;28;20072;-54
2021/11/23 06:19:11;;;;;;;37.40;10.45;;;4.00;96.90;;;;;;5069580;28;20083;-54
2021/11/23 06:21:38;;;;;;;70.90;10.25;;;4.00;96.90;;;;;;5069000;28;20068;-56
2021/11/23 06:24:05;;;;;;;20.90;10.35;;;3.90;96.70;;;;;;5067534;28;20056;-54
2021/11/23 06:26:32;;;;;;;44.58;10.27;;;3.90;97.00;;;;;;5067275;28;20139;-54
2021/11/23 06:28:59;;;;;;;34.50;10.73;;;3.90;96.70;;;;;;5051069;28;20040;-54
2021/11/23 06:31:25;;;;;;;52.95;11.80;;;3.90;96.80;;;;;;5073690;28;20078;-54
2021/11/23 06:33:54;;;;;;;20.30;9.52;;;3.90;96.80;;;;;;5073387;28;20174;-56
2021/11/23 06:36:22;;;;;;;34.75;9.93;;;3.80;96.80;;;;;;5068320;28;20048;-56
2021/11/23 06:38:51;;;;;;;29.08;9.80;;;3.70;96.80;;;;;;5068864;28;20041;-56
2021/11/23 06:41:18;;;;;;;14.55;8.18;;;3.70;96.90;;;;;;5067950;28;20106;-53
2021/11/23 06:43:45;;;;;;;28.38;9.70;;;3.60;97.00;;;;;;5068312;28;20083;-56
2021/11/23 06:46:12;;;;;;;15.73;9.80;;;3.60;96.90;;;;;;5068138;28;20052;-55
2021/11/23 06:48:39;;;;;;;17.73;9.65;;;3.60;96.90;;;;;;5071565;28;20088;-55
2021/11/23 06:51:06;;;;;;;13.80;9.23;;;3.60;96.90;;;;;;5067472;28;20106;-55
2021/11/23 06:53:32;;;;;;;16.25;8.43;;;3.50;96.80;;;;;;5065463;28;20040;-56
2021/11/23 06:55:59;;;;;;;13.40;9.15;;;3.40;97.00;;;;;;5065549;28;20076;-56
2021/11/23 06:58:26;;;;;;;15.18;8.05;;;3.40;97.00;;;;;;5070805;28;20540;-55
2021/11/23 07:00:53;;;;;;;14.43;8.63;;;3.40;96.80;;;;;;5066556;28;20103;-56
2021/11/23 07:03:20;;;;;;;13.25;8.35;;;3.40;96.90;;;;;;5068659;28;20044;-55
2021/11/23 07:05:47;;;;;;;13.10;8.02;;;3.40;96.90;;;;;;5058369;28;20049;-54
2021/11/23 07:08:30;;;;;;;13.35;8.10;;;3.50;97.00;;;;;;5070754;28;20135;-55
2021/11/23 07:10:57;;;;;;;13.50;8.88;;;3.50;96.70;;;;;;5067382;28;20072;-55
2021/11/23 07:13:24;;;;;;;12.38;7.80;;;3.50;96.80;;;;;;5064928;28;20082;-54
2021/11/23 07:15:52;;;;;;;13.15;9.38;;;3.50;96.60;;;;;;5067294;28;20044;-61
2021/11/23 07:18:19;;;;;;;16.02;8.65;;;3.50;96.70;;;;;;5066257;28;20535;-56
2021/11/23 07:20:46;;;;;;;16.15;9.48;;;3.50;96.80;;;;;;5072135;28;20366;-54
2021/11/23 07:23:13;;;;;;;12.63;8.70;;;3.40;96.70;;;;;;5065777;28;20114;-55
2021/11/23 07:25:40;;;;;;;14.95;8.82;;;3.40;96.80;;;;;;5068359;28;20044;-55
2021/11/23 07:28:07;;;;;;;17.55;10.18;;;3.40;96.80;;;;;;5067610;28;20313;-53
2021/11/23 07:30:34;;;;;;;12.55;7.82;;;3.40;97.00;;;;;;5067388;28;20075;-56
2021/11/23 07:33:04;;;;;;;16.55;8.82;;;3.50;97.00;;;;;;5067397;28;20048;-57
2021/11/23 07:35:31;;;;;;;16.40;10.25;;;3.50;96.70;;;;;;5067945;28;20076;-51
2021/11/23 07:37:58;;;;;;;20.30;10.40;;;3.50;96.80;;;;;;5067081;28;20079;-53
2021/11/23 07:40:25;;;;;;;15.18;9.23;;;3.60;97.00;;;;;;5072190;28;20495;-56
2021/11/23 07:42:51;;;;;;;21.83;11.00;;;3.60;96.80;;;;;;5067411;28;20040;-51
2021/11/23 07:45:35;;;;;;;21.88;10.27;;;3.60;96.80;;;;;;5068539;28;20450;-54
2021/11/23 07:48:03;;;;;;;31.40;10.75;;;3.60;96.80;;;;;;5066444;28;20080;-51
2021/11/23 07:50:29;;;;;;;19.30;9.43;;;3.60;96.70;;;;;;5063816;28;20044;-53
2021/11/23 07:52:56;;;;;;;25.60;10.85;;;3.60;96.80;;;;;;5068551;28;20041;-53
2021/11/23 07:55:23;;;;;;;19.08;10.27;;;3.80;96.60;;;;;;5067131;28;20116;-52
2021/11/23 07:57:50;;;;;;;16.80;9.43;;;3.60;96.60;;;;;;5063936;28;20068;-52
2021/11/23 08:00:17;;;;;;;20.80;10.70;;;3.60;96.70;;;;;;5066841;28;20525;-55
2021/11/23 08:02:44;;;;;;;17.67;9.63;;;3.60;96.70;;;;;;5067219;28;20530;-51
2021/11/23 08:05:11;;;;;;;24.40;10.27;;;3.50;96.70;;;;;;5067308;28;20048;-53
2021/11/23 08:07:38;;;;;;;32.45;11.88;;;3.50;96.80;;;;;;5073482;28;20111;-54
2021/11/23 08:10:05;;;;;;;17.55;9.57;;;3.60;96.90;;;;;;5066802;28;20131;-52
2021/11/23 08:12:31;;;;;;;24.98;10.98;;;3.50;97.10;;;;;;5066858;28;20558;-58
2021/11/23 08:14:58;;;;;;;21.33;10.85;;;3.60;97.00;;;;;;5066714;28;20048;-55
2021/11/23 08:17:25;;;;;;;35.50;9.73;;;3.60;97.00;;;;;;5066842;28;20052;-55
2021/11/23 08:19:52;;;;;;;22.08;10.93;;;3.60;97.20;;;;;;5065753;28;20181;-51
2021/11/23 08:22:19;;;;;;;25.90;11.07;;;3.70;97.10;;;;;;5062386;28;20148;-52
2021/11/23 08:24:45;;;;;;;40.75;9.30;;;3.70;97.20;;;;;;5066331;28;20068;-50
2021/11/23 08:27:13;;;;;;;19.50;9.55;;;3.80;97.20;;;;;;5070698;28;20131;-51
2021/11/23 08:29:39;;;;;;;22.63;10.45;;;3.70;97.40;;;;;;5070559;28;20078;-53
2021/11/23 08:32:06;;;;;;;29.65;10.98;;;3.80;97.60;;;;;;5070088;28;20108;-54
2021/11/23 08:34:34;;;;;;;19.02;9.63;;;3.90;97.20;;;;;;5070427;28;20044;-54
2021/11/23 08:37:01;;;;;;;23.92;10.88;;;3.90;97.60;;;;;;5070138;28;20135;-53
2021/11/23 08:39:27;;;;;;;20.63;8.95;;;4.00;97.20;;;;;;5070203;28;20418;-54
2021/11/23 08:41:54;;;;;;;17.48;9.05;;;4.10;97.00;;;;;;5070633;28;20076;-54
2021/11/23 08:44:22;;;;;;;16.13;8.95;;;4.10;97.00;;;;;;5070026;28;20128;-53
2021/11/23 08:46:49;;;;;;;17.85;9.73;;;4.10;96.70;;;;;;5064583;28;20053;-53
2021/11/23 08:49:15;;;;;;;15.73;9.38;;;4.10;96.60;;;;;;5069278;28;20130;-53
2021/11/23 08:51:42;;;;;;;20.63;8.82;;;4.10;96.70;;;;;;5069132;28;20080;-53
2021/11/23 08:54:09;;;;;;;14.63;8.77;;;4.20;96.70;;;;;;5062891;28;20052;-55
2021/11/23 08:56:38;;;;;;;17.38;8.30;;;4.30;96.60;;;;;;5067937;28;20106;-55
2021/11/23 08:59:14;;;;;;;44.38;12.75;;;4.30;96.50;;;;;;5064370;28;20033;-54
2021/11/23 09:01:41;;;;;;;19.45;9.05;;;4.40;96.60;;;;;;5069799;28;20049;-53
2021/11/23 09:04:09;;;;;;;18.00;10.10;;;4.40;96.60;;;;;;5069164;28;20083;-55
2021/11/23 09:06:37;;;;;;;17.42;10.38;;;4.40;96.40;;;;;;5069441;28;20049;-56
2021/11/23 09:09:07;;;;;;;21.02;10.85;;;4.40;96.60;;;;;;5070149;28;20045;-54
2021/11/23 09:11:34;;;;;;;17.95;9.25;;;4.50;96.60;;;;;;5069698;28;20118;-53
2021/11/23 09:14:01;;;;;;;22.92;9.95;;;4.50;96.50;;;;;;5067209;28;20110;-52
2021/11/23 09:16:28;;;;;;;15.68;9.48;;;4.60;96.50;;;;;;5054992;28;20052;-54
2021/11/23 09:18:58;;;;;;;16.80;8.30;;;4.60;96.40;;;;;;5059512;28;20285;-51
2021/11/23 09:21:27;;;;;;;15.93;9.15;;;4.30;96.40;;;;;;5067815;28;20105;-53
2021/11/23 09:23:55;;;;;;;13.90;8.98;;;4.70;96.40;;;;;;5069287;28;20234;-53
2021/11/23 09:26:22;;;;;;;16.27;8.35;;;4.70;96.50;;;;;;5068795;28;20113;-54
2021/11/23 09:28:49;;;;;;;18.83;8.48;;;4.80;96.50;;;;;;5069428;28;20098;-55
2021/11/23 09:31:16;;;;;;;13.45;8.57;;;4.90;96.30;;;;;;5069316;28;20499;-56
2021/11/23 09:33:43;;;;;;;20.48;9.38;;;5.00;96.30;;;;;;5069710;28;20041;-55
2021/11/23 09:36:10;;;;;;;14.85;8.70;;;5.00;96.30;;;;;;5068383;28;20095;-52
2021/11/23 09:38:38;;;;;;;14.85;8.40;;;5.00;96.20;;;;;;5068179;28;20451;-55
2021/11/23 09:41:05;;;;;;;14.13;9.07;;;5.00;96.30;;;;;;5069520;28;20049;-60
2021/11/23 09:43:32;;;;;;;16.80;8.68;;;5.00;96.50;;;;;;5069132;28;20131;-55
2021/11/23 09:45:59;;;;;;;17.00;9.65;;;5.00;96.30;;;;;;5069387;28;20580;-53
2021/11/23 09:48:26;;;;;;;18.48;9.18;;;5.00;96.40;;;;;;5066452;28;20079;-50
2021/11/23 09:50:53;;;;;;;14.52;8.65;;;5.00;96.50;;;;;;5069590;28;20048;-53
2021/11/23 09:53:20;;;;;;;16.55;8.93;;;5.00;96.40;;;;;;5069392;28;20060;-53
2021/11/23 09:55:47;;;;;;;24.27;9.70;;;5.00;96.30;;;;;;5069641;28;20087;-54
2021/11/23 09:58:14;;;;;;;26.25;10.50;;;5.00;96.40;;;;;;5069116;28;20056;-53
2021/11/23 10:00:48;;;;;;;22.88;11.27;;;5.10;96.30;;;;;;5069365;28;20078;-53
2021/11/23 10:03:27;;;;;;;15.75;9.57;;;5.10;96.30;;;;;;5069555;28;20045;-52
2021/11/23 10:06:07;;;;;;;16.42;9.68;;;5.10;96.30;;;;;;5066904;28;20048;-52
2021/11/23 10:08:35;;;;;;;21.48;9.93;;;5.20;96.40;;;;;;5068951;28;20044;-55
2021/11/23 10:11:02;;;;;;;17.05;9.57;;;5.30;96.30;;;;;;5069251;28;20099;-54
2021/11/23 10:14:00;;;;;;;19.33;10.45;;;5.30;96.20;;;;;;5069854;28;20048;-55
2021/11/23 10:16:41;;;;;;;15.85;9.48;;;5.40;96.00;;;;;;5056750;28;20132;-51
2021/11/23 10:19:09;;;;;;;25.45;10.20;;;5.50;96.10;;;;;;5069063;28;20132;-52
2021/11/23 10:21:48;;;;;;;20.95;9.35;;;5.50;96.10;;;;;;5069561;28;20132;-54
2021/11/23 10:24:16;;;;;;;17.98;9.30;;;5.60;96.20;;;;;;5069329;28;20102;-51
2021/11/23 10:26:44;;;;;;;20.45;10.25;;;5.60;96.00;;;;;;5069817;28;20080;-51
2021/11/23 10:29:10;;;;;;;22.48;9.88;;;5.70;96.10;;;;;;5069054;28;20068;-52
2021/11/23 10:31:40;;;;;;;28.73;10.30;;;5.80;96.10;;;;;;5062124;28;20052;-56
2021/11/23 10:34:09;;;;;;;16.45;9.70;;;5.80;95.80;;;;;;5069497;28;20120;-52
2021/11/23 10:36:49;;;;;;;23.05;11.70;;;5.90;95.60;;;;;;5069040;28;20072;-54
2021/11/23 10:39:25;;;;;;;22.42;9.98;;;6.00;95.60;;;;;;5069159;28;20087;-55
2021/11/23 10:41:54;;;;;;;24.85;11.35;;;6.00;95.70;;;;;;5068690;28;20086;-55
2021/11/23 10:44:26;;;;;;;19.42;10.18;;;6.10;95.60;;;;;;5068529;28;20078;-54
2021/11/23 10:47:01;;;;;;;27.65;11.65;;;6.10;95.50;;;;;;5065855;28;20605;-55
2021/11/23 10:49:32;;;;;;;20.38;11.63;;;6.10;95.60;;;;;;5068305;28;20044;-54
2021/11/23 10:51:59;;;;;;;22.95;11.95;;;6.10;95.60;;;;;;5069139;28;20047;-51
2021/11/23 10:54:29;;;;;;;24.38;11.13;;;6.10;95.50;;;;;;5069282;28;20048;-51
2021/11/23 10:56:57;;;;;;;30.88;12.73;;;6.10;95.40;;;;;;5068776;28;20099;-53
2021/11/23 10:59:24;;;;;;;31.20;12.45;;;6.00;95.40;;;;;;5070309;28;20041;-54
2021/11/23 11:01:50;;;;;;;27.25;11.98;;;6.00;95.60;;;;;;5068893;28;20079;-53
2021/11/23 11:04:18;;;;;;;25.35;12.32;;;6.00;95.60;;;;;;5068496;28;20036;-52
2021/11/23 11:06:49;;;;;;;27.05;12.85;;;6.00;95.40;;;;;;5067219;28;20049;-54
2021/11/23 11:09:16;;;;;;;23.83;12.38;;;6.00;95.50;;;;;;5067237;28;20041;-52
2021/11/23 11:11:43;;;;;;;35.83;12.23;;;6.10;95.40;;;;;;5067468;28;20157;-52
2021/11/23 11:14:11;;;;;;;32.33;13.82;;;6.10;95.40;;;;;;5068195;28;20044;-51
2021/11/23 11:16:38;;;;;;;26.50;13.77;;;6.20;95.20;;;;;;5067086;28;20514;-51
2021/11/23 11:19:12;;;;;;;24.20;12.30;;;6.10;95.10;;;;;;5066899;28;20129;-50
2021/11/23 11:22:03;;;;;;;22.00;11.77;;;6.10;95.00;;;;;;5065765;28;20083;-55
2021/11/23 11:24:39;;;;;;;25.10;12.32;;;6.10;94.70;;;;;;5052846;28;20067;-55
2021/11/23 11:27:25;;;;;;;28.98;14.73;;;6.10;94.80;;;;;;5066934;28;20112;-55
2021/11/23 11:29:51;;;;;;;27.45;13.73;;;6.10;94.80;;;;;;5067212;28;20070;-54
2021/11/23 11:32:36;;;;;;;27.85;13.40;;;6.10;94.80;;;;;;5066987;28;20385;-53
2021/11/23 11:35:23;;;;;;;29.85;14.07;;;6.20;94.70;;;;;;5068284;28;20114;-53
2021/11/23 11:37:51;;;;;;;28.02;14.90;;;6.30;94.40;;;;;;5061994;28;20495;-54
2021/11/23 11:40:26;;;;;;;26.90;13.18;;;6.30;94.70;;;;;;5067447;28;20188;-54
2021/11/23 11:42:58;;;;;;;23.40;13.43;;;6.30;94.70;;;;;;5068002;28;20087;-54
2021/11/23 11:45:28;;;;;;;27.27;13.63;;;6.40;94.60;;;;;;5068027;28;20079;-54
2021/11/23 11:47:58;;;;;;;34.80;15.10;;;6.40;94.50;;;;;;5066287;28;20080;-60
2021/11/23 11:50:25;;;;;;;34.58;15.50;;;6.40;94.60;;;;;;5066492;28;20040;-55
2021/11/23 11:52:59;;;;;;;30.35;15.93;;;6.40;94.60;;;;;;5067070;28;20086;-54
2021/11/23 11:55:27;;;;;;;;;;;6.50;94.60;;;;;;5068119;28;20049;-52
2021/11/23 11:57:55;;;;;;;25.98;12.82;;;6.50;94.10;;;;;;5067772;28;19939;-52
2021/11/23 12:03:00;;;;;;;29.58;14.90;;;6.60;94.50;;;;;;5067745;28;20071;-50
2021/11/23 12:05:52;;;;;;;28.27;12.90;;;6.60;94.30;;;;;;5067911;28;20045;-54
2021/11/23 12:08:23;;;;;;;27.38;12.25;;;6.60;94.30;;;;;;5062278;28;20079;-53
2021/11/23 12:10:50;;;;;;;23.67;12.93;;;6.60;94.30;;;;;;5067885;28;20414;-51
2021/11/23 12:13:30;;;;;;;33.65;14.98;;;6.70;94.00;;;;;;5066800;28;20071;-52
2021/11/23 12:16:24;;;;;;;30.33;13.90;;;6.70;94.00;;;;;;5067759;28;20071;-54
2021/11/23 12:19:06;;;;;;;27.80;14.65;;;6.70;93.80;;;;;;5066574;28;20089;-52
2021/11/23 12:21:34;;;;;;;27.38;12.30;;;6.80;94.00;;;;;;5066347;28;20086;-52
2021/11/23 12:24:02;;;;;;;29.73;13.35;;;6.80;94.00;;;;;;5066260;28;20103;-53
2021/11/23 12:26:31;;;;;;;35.03;13.82;;;6.80;94.00;;;;;;5066058;28;20125;-56
2021/11/23 12:28:59;;;;;;;36.50;13.57;;;6.90;93.80;;;;;;5067739;28;20317;-55
2021/11/23 12:31:29;;;;;;;24.75;13.60;;;6.90;93.80;;;;;;5061431;28;20055;-54
2021/11/23 12:34:01;;;;;;;30.95;13.10;;;6.90;93.60;;;;;;5067544;28;20467;-56
2021/11/23 12:36:30;;;;;;;23.83;11.80;;;7.00;93.80;;;;;;5067656;28;20045;-54
2021/11/23 12:39:20;;;;;;;32.78;14.60;;;7.00;93.50;;;;;;5065876;28;20075;-55
2021/11/23 12:41:48;;;;;;;22.35;12.38;;;7.00;93.30;;;;;;5067553;28;20049;-53
2021/11/23 12:44:42;;;;;;;23.30;11.35;;;7.00;93.30;;;;;;5067352;28;20102;-55
2021/11/23 12:47:16;;;;;;;;;;;7.10;93.00;;;;;;5059885;28;20450;-56
2021/11/23 12:49:52;;;;;;;27.97;11.30;;;7.10;92.10;;;;;;5066476;28;19920;-53